createdAt,value
2019-04-07T00:02:22.372Z,9.20
2019-04-07T00:04:49.475Z,9.25
2019-04-07T00:07:16.392Z,8.88
2019-04-07T00:09:43.619Z,9.33
2019-04-07T00:12:11.101Z,10.38
2019-04-07T00:14:37.977Z,9.45
2019-04-07T00:17:05.650Z,9.40
2019-04-07T00:19:32.916Z,8.95
2019-04-07T00:21:59.578Z,9.70
2019-04-07T00:24:26.259Z,9.38
2019-04-07T00:26:53.071Z,9.53
2019-04-07T00:29:20.298Z,9.18
2019-04-07T00:31:47.202Z,8.90
2019-04-07T00:34:13.905Z,9.13
2019-04-07T00:36:40.606Z,9.73
2019-04-07T00:39:07.700Z,9.23
2019-04-07T00:41:34.402Z,8.80
2019-04-07T00:44:01.579Z,9.25
2019-04-07T00:46:28.795Z,8.85
2019-04-07T00:48:56.242Z,8.85
2019-04-07T00:51:23.475Z,8.88
2019-04-07T00:53:50.728Z,9.08
2019-04-07T00:56:18.187Z,9.08
2019-04-07T00:58:45.661Z,8.93
2019-04-07T01:01:15.284Z,9.08
2019-04-07T01:03:42.322Z,9.08
2019-04-07T01:06:09.872Z,9.30
2019-04-07T01:08:37.198Z,8.93
2019-04-07T01:11:04.656Z,9.05
2019-04-07T01:13:31.990Z,8.55
2019-04-07T01:15:59.137Z,9.28
2019-04-07T01:18:30.770Z,9.05
2019-04-07T01:20:57.464Z,9.05
2019-04-07T01:23:24.132Z,8.70
2019-04-07T01:25:51.043Z,8.73
2019-04-07T01:28:17.866Z,9.33
2019-04-07T01:30:44.551Z,9.25
2019-04-07T01:33:11.756Z,9.15
2019-04-07T01:35:46.768Z,8.33
2019-04-07T01:38:07.249Z,8.85
2019-04-07T01:40:33.985Z,8.75
2019-04-07T01:43:32.712Z,8.73
2019-04-07T01:46:22.248Z,8.35
2019-04-07T01:48:59.901Z,8.53
2019-04-07T01:51:47.704Z,8.83
2019-04-07T01:54:37.223Z,8.78
2019-04-07T01:57:30.155Z,8.63
2019-04-07T02:00:17.189Z,8.55
2019-04-07T02:03:02.328Z,8.38
2019-04-07T02:05:57.158Z,8.80
2019-04-07T02:08:41.844Z,8.95
2019-04-07T02:11:37.610Z,8.20
2019-04-07T02:14:30.287Z,8.45
2019-04-07T02:17:17.495Z,8.78
2019-04-07T02:20:07.878Z,8.05
2019-04-07T02:22:42.520Z,8.55
2019-04-07T02:25:18.813Z,8.30
2019-04-07T02:28:01.314Z,8.33
2019-04-07T02:30:35.921Z,8.70
2019-04-07T02:33:31.115Z,8.38
2019-04-07T02:36:24.733Z,8.95
2019-04-07T02:38:58.173Z,8.18
2019-04-07T02:41:37.986Z,8.55
2019-04-07T02:44:15.626Z,8.75
2019-04-07T02:46:58.811Z,8.03
2019-04-07T02:49:44.078Z,8.03
2019-04-07T02:52:30.276Z,8.20
2019-04-07T02:55:16.228Z,8.18
2019-04-07T02:58:01.662Z,8.23
2019-04-07T03:00:50.624Z,8.30
2019-04-07T03:03:42.814Z,8.23
2019-04-07T03:06:32.481Z,8.63
2019-04-07T03:09:00.904Z,8.78
2019-04-07T03:11:37.352Z,8.28
2019-04-07T03:14:12.408Z,7.87
2019-04-07T03:17:05.539Z,8.15
2019-04-07T03:19:39.552Z,8.10
2019-04-07T03:22:16.292Z,8.08
2019-04-07T03:25:06.614Z,8.20
2019-04-07T03:27:45.295Z,8.60
2019-04-07T03:30:24.518Z,7.97
2019-04-07T03:33:11.272Z,8.43
2019-04-07T03:35:46.169Z,7.85
2019-04-07T03:38:36.677Z,8.20
2019-04-07T03:41:13.545Z,8.63
2019-04-07T03:43:52.765Z,8.05
2019-04-07T03:46:29.461Z,8.38
2019-04-07T03:49:02.389Z,8.03
2019-04-07T03:51:37.716Z,8.10
2019-04-07T03:54:18.817Z,7.70
2019-04-07T03:57:11.250Z,8.15
2019-04-07T03:59:56.434Z,7.92
2019-04-07T04:02:37.785Z,8.40
2019-04-07T04:05:15.276Z,8.40
2019-04-07T04:07:57.668Z,7.60
2019-04-07T04:10:34.339Z,8.18
2019-04-07T04:13:23.582Z,7.72
2019-04-07T04:16:06.227Z,7.65
2019-04-07T04:18:33.209Z,8.00
2019-04-07T04:21:00.011Z,7.72
2019-04-07T04:23:26.834Z,7.92
2019-04-07T04:25:53.744Z,8.38
2019-04-07T04:28:21.795Z,8.40
2019-04-07T04:30:50.565Z,7.90
2019-04-07T04:33:18.045Z,7.60
2019-04-07T04:35:44.825Z,7.28
2019-04-07T04:38:12.176Z,7.60
2019-04-07T04:40:39.533Z,7.30
2019-04-07T04:43:06.388Z,7.58
2019-04-07T04:45:33.831Z,7.67
2019-04-07T04:48:00.664Z,7.80
2019-04-07T04:50:27.612Z,7.97
2019-04-07T04:52:54.551Z,8.08
2019-04-07T04:55:22.183Z,7.28
2019-04-07T04:57:49.800Z,7.47
2019-04-07T05:00:17.810Z,8.30
2019-04-07T05:02:45.713Z,7.80
2019-04-07T05:05:12.545Z,8.03
2019-04-07T05:07:51.007Z,7.45
2019-04-07T05:10:08.250Z,7.58
2019-04-07T05:12:35.454Z,7.55
2019-04-07T05:15:02.536Z,7.25
2019-04-07T05:17:29.364Z,7.90
2019-04-07T05:19:56.593Z,7.83
2019-04-07T05:22:23.393Z,7.28
2019-04-07T05:24:50.512Z,7.50
2019-04-07T05:27:17.433Z,7.28
2019-04-07T05:29:44.693Z,7.45
2019-04-07T05:32:12.153Z,7.47
2019-04-07T05:34:38.996Z,7.15
2019-04-07T05:37:06.484Z,7.17
2019-04-07T05:39:33.670Z,7.30
2019-04-07T05:42:01.286Z,7.47
2019-04-07T05:44:28.906Z,7.90
2019-04-07T05:46:56.111Z,7.50
2019-04-07T05:49:24.219Z,7.35
2019-04-07T05:51:51.368Z,7.55
2019-04-07T05:54:19.798Z,7.30
2019-04-07T05:56:46.665Z,7.58
2019-04-07T05:59:14.644Z,7.15
2019-04-07T06:01:41.685Z,8.10
2019-04-07T06:04:08.915Z,7.87
2019-04-07T06:06:35.837Z,7.25
2019-04-07T06:09:05.379Z,7.65
2019-04-07T06:11:35.305Z,7.50
2019-04-07T06:14:01.865Z,7.03
2019-04-07T06:16:28.869Z,7.55
2019-04-07T06:18:56.533Z,6.95
2019-04-07T06:21:23.485Z,7.58
2019-04-07T06:23:50.784Z,7.20
2019-04-07T06:26:17.691Z,7.08
2019-04-07T06:28:48.471Z,7.30
2019-04-07T06:31:14.006Z,7.58
2019-04-07T06:33:41.471Z,6.90
2019-04-07T06:36:08.364Z,7.30
2019-04-07T06:38:38.234Z,7.30
2019-04-07T06:41:04.857Z,7.28
2019-04-07T06:43:35.142Z,7.42
2019-04-07T06:46:27.633Z,7.30
2019-04-07T06:49:06.904Z,7.08
2019-04-07T06:51:44.698Z,7.25
2019-04-07T06:54:34.175Z,7.15
2019-04-07T06:57:29.975Z,7.40
2019-04-07T07:00:24.451Z,7.05
2019-04-07T07:03:04.392Z,7.05
2019-04-07T07:06:03.549Z,7.08
2019-04-07T07:08:45.826Z,7.15
2019-04-07T07:11:47.336Z,7.40
2019-04-07T07:14:34.238Z,7.33
2019-04-07T07:17:17.491Z,6.95
2019-04-07T07:20:06.757Z,7.75
2019-04-07T07:22:47.899Z,7.22
2019-04-07T07:25:14.758Z,7.55
2019-04-07T07:27:42.746Z,6.87
2019-04-07T07:30:10.652Z,7.08
2019-04-07T07:32:37.487Z,7.12
2019-04-07T07:35:06.255Z,7.05
2019-04-07T07:37:33.405Z,7.45
2019-04-07T07:40:00.948Z,7.37
2019-04-07T07:42:30.699Z,7.28
2019-04-07T07:44:58.284Z,7.20
2019-04-07T07:47:25.450Z,7.12
2019-04-07T07:49:52.161Z,7.53
2019-04-07T07:52:21.580Z,7.60
2019-04-07T07:54:47.574Z,7.40
2019-04-07T07:57:14.465Z,7.70
2019-04-07T07:59:42.103Z,7.00
2019-04-07T08:02:09.818Z,7.40
2019-04-07T08:04:37.677Z,7.58
2019-04-07T08:07:05.561Z,7.42
2019-04-07T08:09:32.923Z,7.35
2019-04-07T08:12:01.615Z,7.10
2019-04-07T08:14:29.265Z,7.37
2019-04-07T08:17:00.137Z,7.17
2019-04-07T08:19:29.259Z,7.05
2019-04-07T08:21:54.095Z,7.17
2019-04-07T08:24:21.850Z,7.12
2019-04-07T08:26:48.992Z,7.15
2019-04-07T08:29:16.897Z,7.15
2019-04-07T08:31:43.949Z,7.35
2019-04-07T08:34:10.975Z,7.30
2019-04-07T08:36:38.112Z,7.10
2019-04-07T08:39:07.260Z,7.50
2019-04-07T08:41:34.931Z,6.83
2019-04-07T08:44:01.851Z,7.65
2019-04-07T08:46:32.184Z,6.85
2019-04-07T08:49:03.107Z,6.85
2019-04-07T08:51:32.352Z,7.47
2019-04-07T08:53:58.642Z,7.30
2019-04-07T08:56:26.627Z,7.40
2019-04-07T08:58:54.388Z,7.17
2019-04-07T09:01:22.031Z,7.40
2019-04-07T09:03:48.804Z,7.75
2019-04-07T09:06:16.314Z,7.55
2019-04-07T09:08:43.949Z,7.40
2019-04-07T09:11:13.326Z,7.62
2019-04-07T09:13:43.026Z,7.25
2019-04-07T09:16:39.309Z,7.40
2019-04-07T09:19:29.869Z,7.85
2019-04-07T09:22:34.759Z,7.37
2019-04-07T09:25:21.498Z,7.30
2019-04-07T09:28:13.337Z,7.00
2019-04-07T09:31:03.590Z,7.70
2019-04-07T09:33:49.307Z,7.30
2019-04-07T09:36:24.750Z,7.45
2019-04-07T09:39:04.672Z,7.53
2019-04-07T09:41:43.930Z,7.30
2019-04-07T09:44:42.414Z,7.45
2019-04-07T09:47:24.464Z,7.22
2019-04-07T09:50:10.278Z,7.00
2019-04-07T09:55:58.046Z,7.08
2019-04-07T09:58:54.626Z,7.47
2019-04-07T10:01:34.126Z,7.83
2019-04-07T10:04:26.689Z,7.20
2019-04-07T10:07:12.204Z,7.15
2019-04-07T10:10:14.476Z,7.42
2019-04-07T10:12:51.640Z,7.50
2019-04-07T10:15:44.265Z,7.03
2019-04-07T10:18:36.941Z,7.33
2019-04-07T10:21:32.439Z,7.05
2019-04-07T10:24:14.146Z,7.22
2019-04-07T10:26:51.009Z,7.80
2019-04-07T10:29:46.294Z,6.87
2019-04-07T10:32:24.768Z,7.40
2019-04-07T10:35:08.858Z,7.12
2019-04-07T10:37:52.041Z,6.80
2019-04-07T10:40:26.615Z,7.42
2019-04-07T10:43:20.708Z,7.00
2019-04-07T10:46:11.215Z,7.45
2019-04-07T10:48:47.901Z,7.08
2019-04-07T10:51:26.379Z,7.40
2019-04-07T10:54:12.451Z,7.40
2019-04-07T10:56:57.780Z,7.00
2019-04-07T10:59:40.125Z,7.35
2019-04-07T11:02:14.925Z,7.08
2019-04-07T11:04:50.874Z,7.40
2019-04-07T11:07:43.832Z,7.17
2019-04-07T11:10:37.863Z,7.10
2019-04-07T11:13:16.010Z,7.58
2019-04-07T11:15:59.120Z,7.22
2019-04-07T11:18:49.051Z,7.33
2019-04-07T11:21:38.150Z,6.92
2019-04-07T11:24:12.343Z,7.30
2019-04-07T11:26:55.017Z,7.58
2019-04-07T11:29:29.649Z,7.22
2019-04-07T11:32:10.274Z,6.92
2019-04-07T11:34:46.677Z,7.25
2019-04-07T11:37:29.412Z,7.58
2019-04-07T11:40:22.579Z,7.17
2019-04-07T11:43:07.163Z,7.33
2019-04-07T11:45:59.156Z,7.03
2019-04-07T11:48:35.624Z,6.80
2019-04-07T11:51:14.060Z,7.15
2019-04-07T11:53:58.770Z,7.00
2019-04-07T11:56:37.181Z,7.47
2019-04-07T11:59:20.821Z,7.12
2019-04-07T12:02:08.874Z,6.72
2019-04-07T12:07:31.241Z,6.87
2019-04-07T12:10:17.906Z,6.97
2019-04-07T12:13:06.847Z,7.62
2019-04-07T12:15:55.257Z,7.60
2019-04-07T12:18:37.556Z,6.80
2019-04-07T12:21:32.813Z,7.05
2019-04-07T12:24:30.872Z,7.00
2019-04-07T12:27:20.344Z,7.50
2019-04-07T12:29:55.858Z,6.60
2019-04-07T12:32:41.520Z,7.20
2019-04-07T12:35:28.864Z,7.08
2019-04-07T12:38:19.281Z,7.15
2019-04-07T12:41:11.010Z,6.58
2019-04-07T12:43:52.409Z,7.28
2019-04-07T12:46:24.585Z,6.72
2019-04-07T12:48:57.568Z,6.80
2019-04-07T12:51:39.714Z,7.17
2019-04-07T12:54:24.280Z,7.03
2019-04-07T12:57:10.497Z,6.53
2019-04-07T13:00:06.037Z,6.95
2019-04-07T13:02:41.441Z,6.63
2019-04-07T13:05:25.909Z,5.90
2019-04-07T13:08:15.699Z,6.53
2019-04-07T13:10:49.387Z,5.70
2019-04-07T13:13:32.990Z,6.25
2019-04-07T13:16:20.323Z,6.50
2019-04-07T13:18:55.459Z,5.97
2019-04-07T13:21:30.152Z,6.22
2019-04-07T13:24:10.954Z,6.28
2019-04-07T13:26:45.608Z,6.53
2019-04-07T13:29:30.158Z,6.12
2019-04-07T13:32:13.215Z,6.05
2019-04-07T13:35:05.685Z,5.67
2019-04-07T13:37:52.282Z,6.45
2019-04-07T13:40:34.758Z,6.72
2019-04-07T13:43:24.003Z,6.22
2019-04-07T13:46:22.739Z,6.20
2019-04-07T13:49:08.097Z,6.62
2019-04-07T13:51:51.366Z,6.10
2019-04-07T13:54:44.717Z,6.03
2019-04-07T13:57:27.858Z,6.50
2019-04-07T14:00:23.574Z,6.55
2019-04-07T14:03:00.275Z,6.10
2019-04-07T14:05:50.551Z,6.28
2019-04-07T14:08:36.132Z,6.58
2019-04-07T14:11:19.868Z,6.53
2019-04-07T14:14:05.668Z,6.30
2019-04-07T14:16:42.505Z,6.60
2019-04-07T14:19:29.160Z,6.42
2019-04-07T14:22:14.482Z,5.87
2019-04-07T14:24:50.289Z,6.40
2019-04-07T14:27:40.486Z,5.83
2019-04-07T14:30:18.052Z,6.08
2019-04-07T14:32:53.194Z,6.35
2019-04-07T14:35:43.099Z,6.12
2019-04-07T14:38:22.318Z,5.42
2019-04-07T14:41:03.111Z,6.47
2019-04-07T14:46:36.000Z,5.92
2019-04-07T14:49:31.994Z,5.80
2019-04-07T14:52:34.491Z,6.08
2019-04-07T14:55:20.679Z,6.00
2019-04-07T14:57:54.624Z,5.83
2019-04-07T15:00:48.966Z,6.20
2019-04-07T15:03:20.175Z,6.15
2019-04-07T15:05:48.332Z,5.83
2019-04-07T15:08:36.625Z,5.65
2019-04-07T15:11:15.571Z,6.10
2019-04-07T15:13:45.665Z,6.97
2019-04-07T15:16:12.563Z,6.70
2019-04-07T15:18:48.915Z,6.10
2019-04-07T15:21:15.906Z,6.25
2019-04-07T15:23:44.969Z,6.17
2019-04-07T15:26:14.480Z,6.10
2019-04-07T15:28:41.550Z,6.80
2019-04-07T15:31:08.872Z,6.22
2019-04-07T15:33:38.131Z,5.87
2019-04-07T15:36:07.961Z,6.20
2019-04-07T15:38:34.535Z,5.62
2019-04-07T15:41:04.461Z,6.10
2019-04-07T15:43:33.330Z,6.00
2019-04-07T15:46:00.094Z,6.45
2019-04-07T15:48:27.156Z,6.15
2019-04-07T15:50:54.142Z,6.25
2019-04-07T15:53:24.460Z,6.45
2019-04-07T15:56:01.792Z,6.03
2019-04-07T15:58:22.595Z,6.30
2019-04-07T16:03:33.165Z,6.37
2019-04-07T16:06:00.299Z,6.00
2019-04-07T16:08:29.669Z,5.92
2019-04-07T16:10:56.539Z,6.00
2019-04-07T16:13:23.896Z,6.03
2019-04-07T16:15:54.758Z,5.83
2019-04-07T16:18:20.118Z,6.25
2019-04-07T16:20:47.109Z,6.37
2019-04-07T16:23:16.842Z,5.75
2019-04-07T16:25:43.015Z,5.75
2019-04-07T16:28:13.031Z,6.00
2019-04-07T16:30:39.441Z,6.42
2019-04-07T16:33:06.510Z,6.33
2019-04-07T16:35:40.826Z,6.37
2019-04-07T16:38:07.973Z,5.85
2019-04-07T16:40:42.195Z,6.45
2019-04-07T16:43:16.112Z,6.12
2019-04-07T16:45:44.162Z,6.40
2019-04-07T16:48:09.180Z,6.67
2019-04-07T16:50:36.904Z,6.25
2019-04-07T16:53:06.522Z,6.85
2019-04-07T16:55:37.938Z,6.40
2019-04-07T16:58:06.311Z,6.22
2019-04-07T17:00:34.416Z,6.15
2019-04-07T17:03:02.469Z,6.50
2019-04-07T17:05:30.156Z,6.83
2019-04-07T17:07:58.059Z,7.15
2019-04-07T17:10:28.706Z,6.87
2019-04-07T17:12:54.604Z,6.85
2019-04-07T17:15:21.805Z,6.60
2019-04-07T17:17:52.425Z,6.70
2019-04-07T17:20:17.842Z,6.35
2019-04-07T17:22:47.636Z,6.70
2019-04-07T17:25:15.297Z,6.67
2019-04-07T17:27:43.648Z,6.75
2019-04-07T17:30:13.607Z,6.62
2019-04-07T17:32:43.523Z,6.80
2019-04-07T17:35:14.249Z,6.53
2019-04-07T17:37:41.580Z,6.60
2019-04-07T17:40:17.253Z,6.40
2019-04-07T17:42:45.052Z,7.33
2019-04-07T17:45:30.935Z,6.83
2019-04-07T17:48:18.091Z,6.95
2019-04-07T17:50:55.355Z,6.42
2019-04-07T17:53:51.666Z,6.78
2019-04-07T17:56:37.914Z,6.62
2019-04-07T17:59:44.788Z,7.42
2019-04-07T18:02:19.270Z,7.62
2019-04-07T18:05:04.662Z,7.47
2019-04-07T18:07:46.318Z,7.58
2019-04-07T18:10:29.390Z,7.90
2019-04-07T18:13:27.094Z,8.03
2019-04-07T18:16:12.825Z,7.97
2019-04-07T18:18:59.497Z,8.60
